createdAt,value
2023-01-25T00:00:13.456Z,0.00
2023-01-25T00:01:13.457Z,0.00
2023-01-25T00:02:13.506Z,0.00
2023-01-25T00:03:13.505Z,0.00
2023-01-25T00:04:13.426Z,0.00
2023-01-25T00:05:13.405Z,0.00
2023-01-25T00:06:13.409Z,0.00
2023-01-25T00:07:13.408Z,0.00
2023-01-25T00:08:14.276Z,0.00
2023-01-25T00:09:13.383Z,0.00
2023-01-25T00:10:13.352Z,0.00
2023-01-25T00:11:13.357Z,0.00
2023-01-25T00:12:13.377Z,0.00
2023-01-25T00:13:13.336Z,0.00
2023-01-25T00:14:13.329Z,0.00
2023-01-25T00:15:13.375Z,0.00
2023-01-25T00:16:13.343Z,0.00
2023-01-25T00:17:13.331Z,0.00
2023-01-25T00:18:13.303Z,0.00
2023-01-25T00:19:13.320Z,0.00
2023-01-25T00:20:13.316Z,0.00
2023-01-25T00:21:14.270Z,0.00
2023-01-25T00:22:13.272Z,0.00
2023-01-25T00:23:13.270Z,0.00
2023-01-25T00:24:13.356Z,0.00
2023-01-25T00:25:13.259Z,0.00
2023-01-25T00:26:14.256Z,0.00
2023-01-25T00:27:13.302Z,0.00
2023-01-25T00:28:13.211Z,0.00
2023-01-25T00:29:13.225Z,0.00
2023-01-25T00:30:13.233Z,0.00
2023-01-25T00:31:13.290Z,0.00
2023-01-25T00:32:13.330Z,0.00
2023-01-25T00:33:13.193Z,0.00
2023-01-25T00:34:13.188Z,0.00
2023-01-25T00:35:13.219Z,0.00
2023-01-25T00:36:13.195Z,0.00
2023-01-25T00:37:13.227Z,0.00
2023-01-25T00:38:13.144Z,0.00
2023-01-25T00:39:13.143Z,0.00
2023-01-25T00:40:13.131Z,0.00
2023-01-25T00:41:13.114Z,0.00
2023-01-25T00:42:13.148Z,0.00
2023-01-25T00:43:13.154Z,0.00
2023-01-25T00:44:13.108Z,0.00
2023-01-25T00:45:13.094Z,0.00
2023-01-25T00:46:13.149Z,0.00
2023-01-25T00:47:13.068Z,0.00
2023-01-25T00:48:13.098Z,0.00
2023-01-25T00:49:13.062Z,0.00
2023-01-25T00:50:13.055Z,0.00
2023-01-25T00:51:13.049Z,0.00
2023-01-25T00:52:13.039Z,0.00
2023-01-25T00:53:13.045Z,0.00
2023-01-25T00:54:13.189Z,0.00
2023-01-25T00:55:12.995Z,0.00
2023-01-25T00:56:13.021Z,0.00
2023-01-25T00:57:13.035Z,0.00
2023-01-25T00:58:13.851Z,0.00
2023-01-25T00:59:12.988Z,0.00
2023-01-25T01:00:12.975Z,0.00
2023-01-25T01:01:13.074Z,0.00
2023-01-25T01:02:13.015Z,0.00
2023-01-25T01:03:12.995Z,0.00
2023-01-25T01:04:13.012Z,0.00
2023-01-25T01:05:13.218Z,0.00
2023-01-25T01:06:12.927Z,0.00
2023-01-25T01:07:13.046Z,0.00
2023-01-25T01:08:12.944Z,0.00
2023-01-25T01:09:12.924Z,0.00
2023-01-25T01:10:13.930Z,0.00
2023-01-25T01:11:12.945Z,0.00
2023-01-25T01:12:12.959Z,0.00
2023-01-25T01:13:12.940Z,0.00
2023-01-25T01:14:12.914Z,0.00
2023-01-25T01:15:12.869Z,0.00
2023-01-25T01:16:13.087Z,0.00
2023-01-25T01:17:12.923Z,0.00
2023-01-25T01:18:13.401Z,0.00
2023-01-25T01:19:12.985Z,0.00
2023-01-25T01:20:12.929Z,0.00
2023-01-25T01:21:12.823Z,0.00
2023-01-25T01:22:12.801Z,0.00
2023-01-25T01:23:13.157Z,0.00
2023-01-25T01:24:12.854Z,0.00
2023-01-25T01:25:12.811Z,0.00
2023-01-25T01:26:12.801Z,0.00
2023-01-25T01:27:12.792Z,0.00
2023-01-25T01:28:12.844Z,0.00
2023-01-25T01:29:12.740Z,0.00
2023-01-25T01:30:12.788Z,0.00
2023-01-25T01:31:12.849Z,0.00
2023-01-25T01:32:13.551Z,0.00
2023-01-25T01:33:12.709Z,0.00
2023-01-25T01:34:12.712Z,0.00
2023-01-25T01:35:12.721Z,0.00
2023-01-25T01:36:12.720Z,0.00
2023-01-25T01:37:12.680Z,0.00
2023-01-25T01:38:12.969Z,0.00
2023-01-25T01:39:12.693Z,0.00
2023-01-25T01:40:12.661Z,0.00
2023-01-25T01:41:12.659Z,0.00
2023-01-25T01:42:12.671Z,0.00
2023-01-25T01:43:12.664Z,0.00
2023-01-25T01:44:12.632Z,0.00
2023-01-25T01:45:12.621Z,0.00
2023-01-25T01:46:12.682Z,0.00
2023-01-25T01:47:12.640Z,0.00
2023-01-25T01:48:12.862Z,0.00
2023-01-25T01:49:12.596Z,0.00
2023-01-25T01:50:12.584Z,0.00
2023-01-25T01:51:12.601Z,0.00
2023-01-25T01:52:12.588Z,0.00
2023-01-25T01:53:12.627Z,0.00
2023-01-25T01:54:12.540Z,0.00
2023-01-25T01:55:12.572Z,0.00
2023-01-25T01:56:12.582Z,0.00
2023-01-25T01:57:12.554Z,0.00
2023-01-25T01:58:12.969Z,0.00
2023-01-25T01:59:12.530Z,0.00
2023-01-25T02:00:12.530Z,0.00
2023-01-25T02:01:12.591Z,0.00
2023-01-25T02:02:12.557Z,0.00
2023-01-25T02:03:12.527Z,0.00
2023-01-25T02:04:12.475Z,0.00
2023-01-25T02:05:12.477Z,0.00
2023-01-25T02:06:12.495Z,0.00
2023-01-25T02:07:12.498Z,0.00
2023-01-25T02:08:13.393Z,0.00
2023-01-25T02:09:12.477Z,0.00
2023-01-25T02:10:12.496Z,0.00
2023-01-25T02:11:12.442Z,0.00
2023-01-25T02:12:12.438Z,0.00
2023-01-25T02:13:12.408Z,0.00
2023-01-25T02:14:12.403Z,0.00
2023-01-25T02:15:12.429Z,0.00
2023-01-25T02:16:12.415Z,0.00
2023-01-25T02:17:12.377Z,0.00
2023-01-25T02:18:12.380Z,0.00
2023-01-25T02:19:12.354Z,0.00
2023-01-25T02:20:12.432Z,0.00
2023-01-25T02:21:12.359Z,0.00
2023-01-25T02:22:12.333Z,0.00
2023-01-25T02:23:12.345Z,0.00
2023-01-25T02:24:12.411Z,0.00
2023-01-25T02:25:12.357Z,0.00
2023-01-25T02:26:12.334Z,0.00
2023-01-25T02:27:12.287Z,0.00
2023-01-25T02:28:12.282Z,0.00
2023-01-25T02:29:12.289Z,0.00
2023-01-25T02:30:12.296Z,0.00
2023-01-25T02:31:12.946Z,0.00
2023-01-25T02:32:12.288Z,0.00
2023-01-25T02:33:12.245Z,0.00
2023-01-25T02:34:12.250Z,0.00
2023-01-25T02:35:12.271Z,0.00
2023-01-25T02:36:12.244Z,0.00
2023-01-25T02:37:12.242Z,0.00
2023-01-25T02:38:12.882Z,0.00
2023-01-25T02:39:12.247Z,0.00
2023-01-25T02:40:12.226Z,0.00
2023-01-25T02:41:44.113Z,0.00
2023-01-25T02:42:12.237Z,0.00
2023-01-25T02:43:12.169Z,0.00
2023-01-25T02:44:12.196Z,0.00
2023-01-25T02:45:12.172Z,0.00
2023-01-25T02:46:12.217Z,0.00
2023-01-25T02:47:12.151Z,0.00
2023-01-25T02:48:12.148Z,0.00
2023-01-25T02:49:12.160Z,0.00
2023-01-25T02:50:14.320Z,0.00
2023-01-25T02:51:12.147Z,0.00
2023-01-25T02:52:12.166Z,0.00
2023-01-25T02:53:12.110Z,0.00
2023-01-25T02:54:12.130Z,0.00
2023-01-25T02:55:12.079Z,0.00
2023-01-25T02:56:12.070Z,0.00
2023-01-25T02:57:12.091Z,0.00
2023-01-25T02:58:12.130Z,0.00
2023-01-25T02:59:12.090Z,0.00
2023-01-25T03:00:12.086Z,0.00
2023-01-25T03:01:12.077Z,0.00
2023-01-25T03:02:12.069Z,0.00
2023-01-25T03:03:12.035Z,0.00
2023-01-25T03:04:12.037Z,0.00
2023-01-25T03:05:12.055Z,0.00
2023-01-25T03:06:12.063Z,0.00
2023-01-25T03:07:11.996Z,0.00
2023-01-25T03:08:11.985Z,0.00
2023-01-25T03:09:12.023Z,0.00
2023-01-25T03:10:12.088Z,0.00
2023-01-25T03:11:11.965Z,0.00
2023-01-25T03:12:11.960Z,0.00
2023-01-25T03:13:11.981Z,0.00
2023-01-25T03:14:11.963Z,0.00
2023-01-25T03:15:11.984Z,0.00
2023-01-25T03:16:12.036Z,0.00
2023-01-25T03:17:11.922Z,0.00
2023-01-25T03:18:11.917Z,0.00
2023-01-25T03:19:11.940Z,0.00
2023-01-25T03:20:11.990Z,0.00
2023-01-25T03:21:11.959Z,0.00
2023-01-25T03:22:11.897Z,0.00
2023-01-25T03:23:11.871Z,0.00
2023-01-25T03:24:11.957Z,0.00
2023-01-25T03:25:12.022Z,0.00
2023-01-25T03:26:11.896Z,0.00
2023-01-25T03:27:11.844Z,0.00
2023-01-25T03:28:11.845Z,0.00
2023-01-25T03:29:11.977Z,0.00
2023-01-25T03:30:11.834Z,0.00
2023-01-25T03:31:11.894Z,0.00
2023-01-25T03:32:11.807Z,0.00
2023-01-25T03:33:11.827Z,0.00
2023-01-25T03:34:11.794Z,0.00
2023-01-25T03:35:11.840Z,0.00
2023-01-25T03:36:11.906Z,0.00
2023-01-25T03:37:11.794Z,0.00
2023-01-25T03:38:11.759Z,0.00
2023-01-25T03:39:11.748Z,0.00
2023-01-25T03:40:11.762Z,0.00
2023-01-25T03:41:11.772Z,0.00
2023-01-25T03:42:11.738Z,0.00
2023-01-25T03:43:11.719Z,0.00
2023-01-25T03:44:11.739Z,0.00
2023-01-25T03:45:12.115Z,0.00
2023-01-25T03:46:11.699Z,0.00
2023-01-25T03:47:11.839Z,0.00
2023-01-25T04:03:05.601Z,0.00
2023-01-25T04:04:05.588Z,0.00
2023-01-25T04:05:05.587Z,0.00
2023-01-25T04:06:05.563Z,0.00
2023-01-25T04:07:05.555Z,0.00
2023-01-25T04:08:06.719Z,0.00
2023-01-25T04:09:06.671Z,0.00
2023-01-25T04:10:06.702Z,0.00
2023-01-25T04:11:06.671Z,0.00
2023-01-25T04:12:06.652Z,0.00
2023-01-25T04:13:06.661Z,0.00
2023-01-25T04:14:06.681Z,0.00
2023-01-25T04:15:07.057Z,0.00
2023-01-25T04:16:06.667Z,0.00
2023-01-25T04:17:06.722Z,0.00
2023-01-25T04:18:06.606Z,0.00
2023-01-25T04:19:06.604Z,0.00
2023-01-25T04:20:06.601Z,0.00
2023-01-25T04:21:06.589Z,0.00
2023-01-25T04:22:06.609Z,0.00
2023-01-25T04:23:06.599Z,0.00
2023-01-25T04:24:06.622Z,0.00
2023-01-25T04:25:06.965Z,0.00
2023-01-25T04:26:06.563Z,0.00
2023-01-25T04:27:06.555Z,0.00
2023-01-25T04:28:06.588Z,0.00
2023-01-25T04:29:06.551Z,0.00
2023-01-25T04:30:06.523Z,0.00
2023-01-25T04:31:06.520Z,0.00
2023-01-25T04:32:06.637Z,0.00
2023-01-25T04:33:06.506Z,0.00
2023-01-25T04:34:06.498Z,0.00
2023-01-25T04:35:06.772Z,0.00
2023-01-25T04:36:06.513Z,0.00
2023-01-25T04:37:06.502Z,0.00
2023-01-25T04:38:06.443Z,0.00
2023-01-25T04:39:06.479Z,0.00
2023-01-25T04:40:06.431Z,0.00
2023-01-25T04:41:06.573Z,0.00
2023-01-25T04:42:06.455Z,0.00
2023-01-25T04:43:06.420Z,0.00
2023-01-25T04:44:06.413Z,0.00
2023-01-25T04:45:06.427Z,0.00
2023-01-25T04:46:07.277Z,0.00
2023-01-25T04:47:06.425Z,0.00
2023-01-25T04:48:06.388Z,0.00
2023-01-25T04:49:06.430Z,0.00
2023-01-25T04:50:07.311Z,0.00
2023-01-25T04:51:07.357Z,0.00
2023-01-25T04:52:06.402Z,0.00
2023-01-25T04:53:06.358Z,0.00
2023-01-25T04:54:06.334Z,0.00
2023-01-25T04:55:07.755Z,0.00
2023-01-25T04:56:06.310Z,0.00
2023-01-25T04:57:06.311Z,0.00
2023-01-25T04:58:06.457Z,0.00
2023-01-25T04:59:06.283Z,0.00
2023-01-25T05:00:06.296Z,0.00
2023-01-25T05:01:06.374Z,0.00
2023-01-25T05:02:06.279Z,0.00
2023-01-25T05:03:06.283Z,0.00
2023-01-25T05:04:06.258Z,0.00
2023-01-25T05:05:06.262Z,0.00
2023-01-25T05:06:06.222Z,0.00
2023-01-25T05:07:06.233Z,0.00
2023-01-25T05:08:06.360Z,0.00
2023-01-25T05:09:06.216Z,0.00
2023-01-25T05:10:06.189Z,0.00
2023-01-25T05:11:06.213Z,0.00
2023-01-25T05:12:06.190Z,0.00
2023-01-25T05:13:06.252Z,0.00
2023-01-25T05:14:06.197Z,0.00
2023-01-25T05:15:06.168Z,0.00
2023-01-25T05:16:07.715Z,0.00
2023-01-25T05:17:06.153Z,0.00
2023-01-25T05:18:06.156Z,0.00
2023-01-25T05:19:06.136Z,0.00
2023-01-25T05:20:06.808Z,0.00
2023-01-25T05:21:06.160Z,0.00
2023-01-25T05:22:06.131Z,0.00
2023-01-25T05:23:06.104Z,0.00
2023-01-25T05:24:06.155Z,0.00
2023-01-25T05:25:06.178Z,0.00
2023-01-25T05:26:06.124Z,0.00
2023-01-25T05:27:06.154Z,0.00
2023-01-25T05:28:06.073Z,0.00
2023-01-25T05:29:06.066Z,0.00
2023-01-25T05:30:06.096Z,0.00
2023-01-25T05:31:06.104Z,0.00
2023-01-25T05:32:06.129Z,0.00
2023-01-25T05:33:06.048Z,0.00
2023-01-25T05:34:06.023Z,0.00
2023-01-25T05:35:06.111Z,0.00
2023-01-25T05:36:06.017Z,0.00
2023-01-25T05:37:06.031Z,0.00
2023-01-25T05:38:06.000Z,0.00
2023-01-25T05:39:06.012Z,0.00
2023-01-25T05:40:06.042Z,0.00
2023-01-25T05:41:06.044Z,0.00
2023-01-25T05:42:05.981Z,0.00
2023-01-25T05:43:05.941Z,0.00
2023-01-25T05:44:05.960Z,0.00
2023-01-25T05:45:06.042Z,0.00
2023-01-25T05:46:05.982Z,0.00
2023-01-25T05:47:05.938Z,0.00
2023-01-25T05:48:05.933Z,0.00
2023-01-25T05:49:05.941Z,0.00
2023-01-25T05:50:08.597Z,0.00
2023-01-25T05:51:05.890Z,0.00
2023-01-25T05:52:05.885Z,0.00
2023-01-25T05:53:05.905Z,0.00
2023-01-25T05:54:05.894Z,0.00
2023-01-25T05:55:05.854Z,0.00
2023-01-25T05:56:05.971Z,0.00
2023-01-25T05:57:05.860Z,0.00
2023-01-25T05:58:06.043Z,0.00
2023-01-25T05:59:05.872Z,0.00
2023-01-25T06:00:05.852Z,0.00
2023-01-25T06:01:05.935Z,0.00
2023-01-25T06:02:05.813Z,0.00
2023-01-25T06:03:05.854Z,0.00
2023-01-25T06:04:06.798Z,0.00
2023-01-25T06:05:05.854Z,0.00
2023-01-25T06:06:05.806Z,0.00
2023-01-25T06:07:05.765Z,0.00
2023-01-25T06:08:05.781Z,0.00
2023-01-25T06:09:05.754Z,0.00
2023-01-25T06:10:05.774Z,0.00
2023-01-25T06:11:05.748Z,0.00
2023-01-25T06:12:05.735Z,0.00
2023-01-25T06:13:05.794Z,0.00
2023-01-25T06:14:05.737Z,0.00
2023-01-25T06:15:05.717Z,0.00
2023-01-25T06:16:05.766Z,0.00
2023-01-25T06:17:05.704Z,0.00
2023-01-25T06:18:05.676Z,0.00
2023-01-25T06:19:05.670Z,0.00
2023-01-25T06:20:05.663Z,0.00
2023-01-25T06:21:06.663Z,0.00
2023-01-25T06:22:05.730Z,0.00
2023-01-25T06:23:05.630Z,0.00
2023-01-25T06:24:05.729Z,0.00
2023-01-25T06:25:05.651Z,0.00
2023-01-25T06:26:05.615Z,0.00
2023-01-25T06:27:05.639Z,0.00
2023-01-25T06:28:05.614Z,0.00
2023-01-25T06:29:05.607Z,0.00
2023-01-25T06:30:05.578Z,0.00
2023-01-25T06:31:05.628Z,0.00
2023-01-25T06:32:05.598Z,0.00
2023-01-25T06:33:05.607Z,0.00
2023-01-25T06:34:05.568Z,0.00
2023-01-25T06:35:05.552Z,0.00
2023-01-25T06:36:05.532Z,0.00
2023-01-25T06:37:05.554Z,0.00
2023-01-25T06:38:05.544Z,0.00
2023-01-25T06:39:05.521Z,0.00
2023-01-25T06:40:05.551Z,0.00
2023-01-25T06:41:05.526Z,0.00
2023-01-25T06:42:05.495Z,0.00
2023-01-25T06:43:05.501Z,0.00
2023-01-25T06:44:05.501Z,0.00
2023-01-25T06:45:05.512Z,0.00
2023-01-25T06:46:06.980Z,0.00
2023-01-25T06:47:05.488Z,0.00
2023-01-25T06:48:05.450Z,0.00
2023-01-25T06:49:05.525Z,0.00
2023-01-25T06:50:05.428Z,0.00
2023-01-25T06:51:05.424Z,0.00
2023-01-25T06:52:05.430Z,0.00
2023-01-25T06:53:05.427Z,0.00
2023-01-25T06:54:05.434Z,0.00
2023-01-25T06:55:05.414Z,0.00
2023-01-25T06:56:05.406Z,0.00
2023-01-25T06:57:05.385Z,0.00
2023-01-25T06:58:05.422Z,0.00
2023-01-25T06:59:05.404Z,0.00
2023-01-25T07:00:05.364Z,0.00
2023-01-25T07:01:05.376Z,0.00
2023-01-25T07:02:05.406Z,0.00
2023-01-25T07:03:05.410Z,0.00
2023-01-25T07:04:06.366Z,0.00
2023-01-25T07:05:05.356Z,0.00
2023-01-25T07:06:05.392Z,0.00
2023-01-25T07:07:05.315Z,0.00
2023-01-25T07:08:05.327Z,0.00
2023-01-25T07:09:05.308Z,0.00
2023-01-25T07:10:05.321Z,0.00
2023-01-25T07:11:05.308Z,0.00
2023-01-25T07:12:05.266Z,0.00
2023-01-25T07:13:05.286Z,0.00
2023-01-25T07:14:05.263Z,0.00
2023-01-25T07:15:05.266Z,0.00
2023-01-25T07:16:05.278Z,0.00
2023-01-25T07:17:05.234Z,0.00
2023-01-25T07:18:15.678Z,0.00
2023-01-25T07:19:07.241Z,0.00
2023-01-25T07:20:05.237Z,0.00
2023-01-25T07:21:05.207Z,0.00
2023-01-25T07:22:05.187Z,0.00
2023-01-25T07:23:05.183Z,0.00
2023-01-25T07:24:05.252Z,0.00
2023-01-25T07:25:05.170Z,5.62
2023-01-25T07:26:05.231Z,5.62
2023-01-25T07:27:05.220Z,5.62
2023-01-25T07:28:05.144Z,5.62
2023-01-25T07:29:05.149Z,5.62
2023-01-25T07:30:05.213Z,5.62
2023-01-25T07:31:05.299Z,5.62
2023-01-25T07:32:05.129Z,5.62
2023-01-25T07:33:05.124Z,5.62
2023-01-25T07:34:05.130Z,5.62
2023-01-25T07:35:05.133Z,5.62
2023-01-25T07:36:05.147Z,5.62
2023-01-25T07:37:05.089Z,5.62
2023-01-25T07:38:05.085Z,5.62
2023-01-25T07:39:05.073Z,5.62
2023-01-25T07:40:05.085Z,5.62
2023-01-25T07:41:05.078Z,5.62
2023-01-25T07:42:05.088Z,11.25
2023-01-25T07:43:05.053Z,11.25
2023-01-25T07:44:05.059Z,11.25
2023-01-25T07:45:05.010Z,11.25
2023-01-25T07:46:05.056Z,11.25
2023-01-25T07:47:05.793Z,11.25
2023-01-25T07:48:05.019Z,11.25
2023-01-25T07:49:04.994Z,11.25
2023-01-25T07:50:05.047Z,11.25
2023-01-25T07:51:04.966Z,11.25
2023-01-25T07:52:05.708Z,16.88
2023-01-25T07:53:04.985Z,16.88
2023-01-25T07:54:04.970Z,16.88
2023-01-25T07:55:04.953Z,16.88
2023-01-25T07:56:04.961Z,16.88
2023-01-25T07:57:04.956Z,16.88
2023-01-25T07:58:04.925Z,16.88
2023-01-25T07:59:05.040Z,16.88
2023-01-25T08:00:04.919Z,16.88
2023-01-25T08:01:04.898Z,16.88
2023-01-25T08:02:04.930Z,16.88
2023-01-25T08:03:04.922Z,16.88
2023-01-25T08:04:04.901Z,22.50
2023-01-25T08:05:04.891Z,22.50
2023-01-25T08:06:04.859Z,22.50
2023-01-25T08:07:04.903Z,22.50
2023-01-25T08:08:04.871Z,22.50
2023-01-25T08:09:04.848Z,22.50
2023-01-25T08:10:04.942Z,22.50
2023-01-25T08:11:04.825Z,22.50
2023-01-25T08:12:06.791Z,22.50
2023-01-25T08:13:04.838Z,22.50
2023-01-25T08:14:04.848Z,22.50
2023-01-25T08:15:04.827Z,22.50
2023-01-25T08:16:04.890Z,22.50
2023-01-25T08:17:04.779Z,22.50
2023-01-25T08:18:04.781Z,28.12
2023-01-25T08:19:04.811Z,28.12
2023-01-25T08:20:04.799Z,28.12
2023-01-25T08:21:04.748Z,28.12
2023-01-25T08:22:04.769Z,28.12
2023-01-25T08:23:04.747Z,28.12
2023-01-25T08:24:04.820Z,28.12
2023-01-25T08:25:04.748Z,28.12
2023-01-25T08:26:04.777Z,28.12
2023-01-25T08:27:04.741Z,33.75
2023-01-25T08:28:04.709Z,33.75
2023-01-25T08:29:04.691Z,33.75
2023-01-25T08:30:04.741Z,33.75
2023-01-25T08:31:36.713Z,33.75
2023-01-25T08:32:04.776Z,33.75
2023-01-25T08:33:04.657Z,33.75
2023-01-25T08:34:05.684Z,33.75
2023-01-25T08:35:04.712Z,33.75
2023-01-25T08:36:04.655Z,39.38
2023-01-25T08:37:04.659Z,39.38
2023-01-25T08:38:04.651Z,39.38
2023-01-25T08:39:05.181Z,39.38
2023-01-25T08:40:04.628Z,39.38
2023-01-25T08:41:36.596Z,39.38
2023-01-25T08:42:04.617Z,39.38
2023-01-25T08:43:05.616Z,39.38
2023-01-25T08:44:04.572Z,39.38
2023-01-25T08:45:04.609Z,45.00
2023-01-25T08:46:04.618Z,45.00
2023-01-25T08:47:04.586Z,45.00
2023-01-25T08:48:04.584Z,45.00
2023-01-25T08:49:04.789Z,45.00
2023-01-25T08:50:37.505Z,45.00
2023-01-25T08:51:04.540Z,50.62
2023-01-25T08:52:04.579Z,50.62
2023-01-25T08:53:04.552Z,50.62
2023-01-25T08:54:36.413Z,50.62
2023-01-25T08:55:04.513Z,50.62
2023-01-25T08:56:04.591Z,50.62
2023-01-25T08:57:04.520Z,56.25
2023-01-25T08:58:04.493Z,56.25
2023-01-25T08:59:04.521Z,56.25
2023-01-25T09:00:04.520Z,56.25
2023-01-25T09:01:04.533Z,56.25
2023-01-25T09:02:04.454Z,56.25
2023-01-25T09:03:04.464Z,56.25
2023-01-25T09:04:04.526Z,56.25
2023-01-25T09:05:04.439Z,56.25
2023-01-25T09:06:04.495Z,56.25
2023-01-25T09:07:04.467Z,56.25
2023-01-25T09:08:06.366Z,56.25
2023-01-25T09:09:04.409Z,56.25
2023-01-25T09:10:04.393Z,56.25
2023-01-25T09:11:04.364Z,56.25
2023-01-25T09:12:04.436Z,61.88
2023-01-25T09:13:06.341Z,56.25
2023-01-25T09:14:04.439Z,56.25
2023-01-25T09:15:04.369Z,56.25
2023-01-25T09:16:04.364Z,56.25
2023-01-25T09:17:04.442Z,56.25
2023-01-25T09:18:04.371Z,56.25
2023-01-25T09:19:04.374Z,56.25
2023-01-25T09:20:04.338Z,56.25
2023-01-25T09:21:04.400Z,61.88
2023-01-25T09:22:04.326Z,61.88
2023-01-25T09:23:04.287Z,61.88
2023-01-25T09:24:06.916Z,61.88
2023-01-25T09:25:05.479Z,61.88
2023-01-25T09:26:04.307Z,61.88
2023-01-25T09:27:04.273Z,61.88
2023-01-25T09:28:04.270Z,61.88
2023-01-25T09:29:04.346Z,61.88
2023-01-25T09:30:04.462Z,61.88
2023-01-25T09:31:20.559Z,61.88
2023-01-25T09:32:06.341Z,61.88
2023-01-25T09:33:04.238Z,61.88
2023-01-25T09:34:04.219Z,61.88
2023-01-25T09:35:04.195Z,61.88
2023-01-25T09:36:04.210Z,61.88
2023-01-25T09:37:36.139Z,61.88
2023-01-25T09:38:04.181Z,61.88
2023-01-25T09:39:36.126Z,61.88
2023-01-25T09:40:04.173Z,67.50
2023-01-25T09:41:36.569Z,67.50
2023-01-25T09:42:14.058Z,67.50
2023-01-25T09:43:05.124Z,67.50
2023-01-25T09:44:14.181Z,67.50
2023-01-25T09:45:06.185Z,67.50
2023-01-25T09:46:04.160Z,67.50
2023-01-25T09:47:04.084Z,67.50
2023-01-25T09:48:04.108Z,67.50
2023-01-25T09:49:07.714Z,67.50
2023-01-25T09:50:05.099Z,67.50
2023-01-25T09:51:05.046Z,67.50
2023-01-25T09:52:04.182Z,73.12
2023-01-25T09:53:04.067Z,73.12
2023-01-25T09:54:04.078Z,73.12
2023-01-25T09:55:04.104Z,73.12
2023-01-25T09:56:04.053Z,73.12
2023-01-25T09:57:04.040Z,73.12
2023-01-25T09:58:04.166Z,73.12
2023-01-25T09:59:04.013Z,73.12
2023-01-25T10:00:04.258Z,73.12
2023-01-25T10:01:12.073Z,67.50
2023-01-25T10:02:05.020Z,67.50
2023-01-25T10:03:04.031Z,67.50
2023-01-25T10:04:03.965Z,67.50
2023-01-25T10:05:03.992Z,67.50
2023-01-25T10:06:03.958Z,61.88
2023-01-25T10:07:04.038Z,67.50
2023-01-25T10:08:03.974Z,73.12
2023-01-25T10:09:04.134Z,73.12
2023-01-25T10:10:03.950Z,73.12
2023-01-25T10:11:03.934Z,73.12
2023-01-25T10:12:03.974Z,73.12
2023-01-25T10:13:03.965Z,73.12
2023-01-25T10:14:03.901Z,67.50
2023-01-25T10:15:03.913Z,67.50
2023-01-25T10:16:05.219Z,73.12
2023-01-25T10:17:03.898Z,73.12
2023-01-25T10:18:03.879Z,73.12
2023-01-25T10:19:03.851Z,73.12
2023-01-25T10:20:03.862Z,73.12
2023-01-25T10:21:03.846Z,73.12
2023-01-25T10:22:03.857Z,78.75
2023-01-25T10:23:03.912Z,78.75
2023-01-25T10:24:03.866Z,78.75
2023-01-25T10:25:04.605Z,78.75
2023-01-25T10:26:03.801Z,78.75
2023-01-25T10:27:04.603Z,78.75
2023-01-25T10:28:03.864Z,78.75
2023-01-25T10:29:03.976Z,78.75
2023-01-25T10:30:03.779Z,84.38
2023-01-25T10:31:03.954Z,84.38
2023-01-25T10:32:03.752Z,78.75
2023-01-25T10:33:03.805Z,78.75
2023-01-25T10:34:03.791Z,78.75
2023-01-25T10:35:03.778Z,78.75
2023-01-25T10:36:03.739Z,78.75
2023-01-25T10:37:03.764Z,78.75
2023-01-25T10:38:03.714Z,78.75
2023-01-25T10:39:03.737Z,78.75
2023-01-25T10:40:03.696Z,84.38
2023-01-25T10:41:03.878Z,84.38
2023-01-25T10:42:03.718Z,84.38
2023-01-25T10:43:03.672Z,78.75
2023-01-25T10:44:03.727Z,78.75
2023-01-25T10:45:03.702Z,78.75
2023-01-25T10:46:03.648Z,78.75
2023-01-25T10:47:03.627Z,78.75
2023-01-25T10:48:03.633Z,78.75
2023-01-25T10:49:03.650Z,78.75
2023-01-25T10:50:03.696Z,84.38
2023-01-25T10:51:03.616Z,84.38
2023-01-25T10:52:03.604Z,84.38
2023-01-25T10:53:03.625Z,90.00
2023-01-25T10:54:04.587Z,84.38
2023-01-25T10:55:03.701Z,84.38
2023-01-25T10:56:03.606Z,84.38
2023-01-25T10:57:03.546Z,84.38
2023-01-25T10:58:03.546Z,84.38
2023-01-25T10:59:03.544Z,84.38
2023-01-25T11:00:03.552Z,90.00
2023-01-25T11:01:03.601Z,90.00
2023-01-25T11:02:03.578Z,90.00
2023-01-25T11:03:03.557Z,90.00
2023-01-25T11:04:03.501Z,90.00
2023-01-25T11:05:03.499Z,90.00
2023-01-25T11:06:03.496Z,90.00
2023-01-25T11:07:03.578Z,90.00
2023-01-25T11:08:03.468Z,90.00
2023-01-25T11:09:03.519Z,90.00
2023-01-25T11:10:03.496Z,90.00
2023-01-25T11:11:03.464Z,90.00
2023-01-25T11:12:03.520Z,90.00
2023-01-25T11:13:04.390Z,90.00
2023-01-25T11:14:03.432Z,90.00
2023-01-25T11:15:03.431Z,90.00
2023-01-25T11:16:03.474Z,90.00
2023-01-25T11:17:03.421Z,90.00
2023-01-25T11:18:03.423Z,90.00
2023-01-25T11:19:03.395Z,90.00
2023-01-25T11:20:03.389Z,84.38
2023-01-25T11:21:03.436Z,84.38
2023-01-25T11:22:03.409Z,84.38
2023-01-25T11:23:03.399Z,84.38
2023-01-25T11:24:04.720Z,84.38
2023-01-25T11:25:03.348Z,84.38
2023-01-25T11:26:03.341Z,84.38
2023-01-25T11:27:04.309Z,84.38
2023-01-25T11:28:03.362Z,84.38
2023-01-25T11:29:03.334Z,84.38
2023-01-25T11:30:03.321Z,84.38
2023-01-25T11:31:03.423Z,84.38
2023-01-25T11:32:03.312Z,84.38
2023-01-25T11:33:03.311Z,84.38
2023-01-25T11:34:03.306Z,84.38
2023-01-25T11:35:03.266Z,84.38
2023-01-25T11:36:04.267Z,84.38
2023-01-25T11:37:03.355Z,84.38
2023-01-25T11:38:03.279Z,90.00
2023-01-25T11:39:03.257Z,84.38
2023-01-25T11:40:03.233Z,84.38
2023-01-25T11:41:03.265Z,84.38
2023-01-25T11:42:03.280Z,84.38
2023-01-25T11:43:03.233Z,84.38
2023-01-25T11:44:03.224Z,84.38
2023-01-25T11:45:03.225Z,84.38
2023-01-25T11:46:03.248Z,84.38
2023-01-25T11:47:03.234Z,84.38
2023-01-25T11:48:03.198Z,84.38
2023-01-25T11:49:03.627Z,84.38
2023-01-25T11:50:03.254Z,84.38
2023-01-25T11:51:03.170Z,84.38
2023-01-25T11:52:04.141Z,84.38
2023-01-25T11:53:03.177Z,84.38
2023-01-25T11:54:03.151Z,90.00
2023-01-25T11:55:03.140Z,84.38
2023-01-25T11:56:03.350Z,84.38
2023-01-25T11:57:03.093Z,90.00
2023-01-25T11:58:03.085Z,90.00
2023-01-25T11:59:03.097Z,90.00
2023-01-25T12:00:03.112Z,95.62
2023-01-25T12:01:03.119Z,90.00
2023-01-25T12:02:03.104Z,90.00
2023-01-25T12:03:03.160Z,90.00
2023-01-25T12:04:03.103Z,90.00
2023-01-25T12:05:09.692Z,90.00
2023-01-25T12:06:04.569Z,90.00
2023-01-25T12:07:03.037Z,90.00
2023-01-25T12:08:03.045Z,84.38
2023-01-25T12:09:03.031Z,90.00
2023-01-25T12:10:03.007Z,84.38
2023-01-25T12:11:02.991Z,84.38
2023-01-25T12:12:03.037Z,84.38
2023-01-25T12:13:03.100Z,84.38
2023-01-25T12:14:02.984Z,84.38
2023-01-25T12:15:02.985Z,84.38
2023-01-25T12:16:03.010Z,84.38
2023-01-25T12:17:02.944Z,84.38
2023-01-25T12:18:02.936Z,84.38
2023-01-25T12:19:02.993Z,84.38
2023-01-25T12:20:02.931Z,84.38
2023-01-25T12:21:02.943Z,84.38
2023-01-25T12:22:02.936Z,84.38
2023-01-25T12:23:03.849Z,84.38
2023-01-25T12:24:03.021Z,84.38
2023-01-25T12:25:02.878Z,84.38
2023-01-25T12:26:04.394Z,84.38
2023-01-25T12:27:02.949Z,84.38
2023-01-25T12:28:02.933Z,84.38
2023-01-25T12:29:02.919Z,84.38
2023-01-25T12:30:02.872Z,84.38
2023-01-25T12:31:02.995Z,90.00
2023-01-25T12:32:02.850Z,90.00
2023-01-25T12:33:14.004Z,90.00
2023-01-25T12:34:04.833Z,90.00
2023-01-25T12:35:03.495Z,90.00
2023-01-25T12:36:02.887Z,84.38
2023-01-25T12:37:02.829Z,84.38
2023-01-25T12:38:02.863Z,84.38
2023-01-25T12:39:02.813Z,84.38
2023-01-25T12:40:02.798Z,84.38
2023-01-25T12:41:02.847Z,90.00
2023-01-25T12:42:02.831Z,84.38
2023-01-25T12:43:02.836Z,84.38
2023-01-25T12:44:03.562Z,84.38
2023-01-25T12:45:02.751Z,84.38
2023-01-25T12:46:03.477Z,84.38
2023-01-25T12:47:03.679Z,84.38
2023-01-25T12:48:02.796Z,78.75
2023-01-25T12:49:02.704Z,84.38
2023-01-25T12:50:02.717Z,84.38
2023-01-25T12:51:02.711Z,84.38
2023-01-25T12:52:02.718Z,84.38
2023-01-25T12:53:02.728Z,84.38
2023-01-25T12:54:02.741Z,84.38
2023-01-25T12:55:02.763Z,84.38
2023-01-25T12:56:02.880Z,84.38
2023-01-25T12:57:02.666Z,84.38
2023-01-25T12:58:02.666Z,84.38
2023-01-25T12:59:02.659Z,84.38
2023-01-25T13:00:02.710Z,84.38
2023-01-25T13:01:02.639Z,90.00
2023-01-25T13:02:02.691Z,90.00
2023-01-25T13:03:02.604Z,90.00
2023-01-25T13:04:02.592Z,90.00
2023-01-25T13:05:02.754Z,90.00
2023-01-25T13:06:02.595Z,90.00
2023-01-25T13:07:02.595Z,90.00
2023-01-25T13:08:02.561Z,84.38
2023-01-25T13:09:02.654Z,84.38
2023-01-25T13:10:02.625Z,84.38
2023-01-25T13:11:02.610Z,84.38
2023-01-25T13:12:02.523Z,90.00
2023-01-25T13:13:02.525Z,90.00
2023-01-25T13:14:02.550Z,95.62
2023-01-25T13:15:02.512Z,90.00
2023-01-25T13:16:03.417Z,90.00
2023-01-25T13:17:10.091Z,90.00
2023-01-25T13:18:04.562Z,90.00
2023-01-25T13:19:02.505Z,95.62
2023-01-25T13:20:02.651Z,90.00
2023-01-25T13:21:02.459Z,90.00
2023-01-25T13:22:02.495Z,90.00